Terminal Aerodrome Forecast
Issued by NWS

Home | Current Version | Previous Version | Text Only | Print | Product List | Glossary On
Versions: 1 2 3 4 5 6 7 8 9 10 11 12 13 14 15 16 17
000
FTAK31 PAJN 011700
TAFAJN
TAF
PAJN 011721Z 0118/0218 24005KT P6SM FEW090 BKN200
     FM012200 24007KT P6SM SCT035 BKN060
     FM020200 VRB05KT P6SM -RA BKN025 OVC050
     FM020600 10010G16KT 5SM -RA BR OVC012 WS020/14030KT
     FM021600 10014G21KT 5SM -RA BR OVC015 WS020/14035KT=

USA.gov is the U.S. government's official web portal to all federal, state and local government web resources and services.